Αρχική σελίδα
METAR-TAF:

METAR-TAF

Αεροδρόμια :

Rio Branco, Άκρα, Βραζιλία

γεωγραφικό πλάτος: 10-00S, γεωγραφικό μήκος: 067-48W, υψόμετρο: 142 μ

Παρών καιρός

Η αναφορά έγινε 29 λεπτά πριν, στις 08:00 UTC
Άνεμος 2 kt από Δ
Θερμοκρασία 18°C
Υγρασία 94%
Πίεση 1015 hPa
Ορατότητα 10 χλμ και άνω
Δεν υπάρχουν νέφη με βάση κάτω από τα 1500 μ. και δεν υπάρχουν νέφη σωρειτομελανίτες.

METAR: SBRB 190800Z 27002KT CAVOK 18/17 Q1015

Χρόνος: 03:29 (08:29 UTC)

Πρόγνωση Καιρού

Η αναφορά έγινε 5 ώρες και 59 λεπτά πριν, στις 02:30 UTC
Η πρόγνωση ισχύει από τις 19 στις 06 UTC έως τις 19 στις 18 UTC
Άνεμος 5 kt από Ν
Ορατότητα: 7000 μ
Καθιστάμενος
από 19 στις 14 UTC έως τις 19 στις 16 UTC
Άνεμος 7 kt από ΝA
Ορατότητα 10 χλμ και άνω
Δεν υπάρχουν νέφη με βάση κάτω από τα 1500 μ. και δεν υπάρχουν νέφη σωρειτομελανίτες.

TAF: SBRB 190230Z 1906/1918 17005KT 7000 NSC TN16/1910Z TX33/1918Z BECMG 1914/1916 14007KT CAVOK RMK PGU

Μετεωρολογικές αναφορές και προγνώσεις για περισσότερα από 4000 αεροδρόμια (δελτία METAR και TAF).

Οι διαθέσιμοι σταθμοί απεικονίζονται στο χάρτη με κίτρινες και κόκκινες κουκκίδες.

Μετακινήστε το ποντίκι πάνω από τις κουκκίδες για να δείτε το όνομα του σταθμού.

Στη συνέχεια, κάντε κλικ για να δείτε τις μετεωρολογικές αναφορές και τις προγνώσεις καιρού.

Για να αλλάξετε το χάρτη: κάντε κλικ στα πράσινα κουμπιά με τον μαύρο σταυρό για να ζουμάρετε, στο πράσινο κουμπί με την παύλα για να αφαιρέσετε το ζουμ ή στα πράσινα βέλη για να αντιπαραβάλλετε χάρτες.


METAR-TAF: